sensor_id;sensor_type;location;lat;lon;timestamp;P1;durP1;ratioP1;P2;durP2;ratioP2
43086;SDS011;28708;52.224;6.924;2022-08-19T00:00:24;9.40;;;6.97;;
43086;SDS011;28708;52.224;6.924;2022-08-19T00:02:50;9.57;;;6.93;;
43086;SDS011;28708;52.224;6.924;2022-08-19T00:05:16;10.90;;;7.80;;
43086;SDS011;28708;52.224;6.924;2022-08-19T00:07:44;10.23;;;7.60;;
43086;SDS011;28708;52.224;6.924;2022-08-19T00:10:11;9.23;;;7.60;;
43086;SDS011;28708;52.224;6.924;2022-08-19T00:12:38;10.07;;;7.80;;
43086;SDS011;28708;52.224;6.924;2022-08-19T00:15:05;12.10;;;8.40;;
43086;SDS011;28708;52.224;6.924;2022-08-19T00:17:39;9.73;;;7.90;;
43086;SDS011;28708;52.224;6.924;2022-08-19T00:20:07;11.30;;;7.47;;
43086;SDS011;28708;52.224;6.924;2022-08-19T00:22:36;9.85;;;8.52;;
43086;SDS011;28708;52.224;6.924;2022-08-19T00:25:03;12.60;;;8.77;;
43086;SDS011;28708;52.224;6.924;2022-08-19T00:27:30;9.23;;;8.17;;
43086;SDS011;28708;52.224;6.924;2022-08-19T00:29:56;10.60;;;7.90;;
43086;SDS011;28708;52.224;6.924;2022-08-19T00:32:24;11.57;;;8.63;;
43086;SDS011;28708;52.224;6.924;2022-08-19T00:34:51;9.13;;;7.67;;
43086;SDS011;28708;52.224;6.924;2022-08-19T00:37:18;10.13;;;8.93;;
43086;SDS011;28708;52.224;6.924;2022-08-19T00:39:48;11.40;;;9.43;;
43086;SDS011;28708;52.224;6.924;2022-08-19T00:42:16;12.10;;;9.33;;
43086;SDS011;28708;52.224;6.924;2022-08-19T00:44:42;13.17;;;9.50;;
43086;SDS011;28708;52.224;6.924;2022-08-19T00:47:08;14.03;;;9.60;;
43086;SDS011;28708;52.224;6.924;2022-08-19T00:49:39;14.17;;;10.07;;
43086;SDS011;28708;52.224;6.924;2022-08-19T00:52:15;14.67;;;10.33;;
43086;SDS011;28708;52.224;6.924;2022-08-19T00:54:47;12.80;;;10.47;;
43086;SDS011;28708;52.224;6.924;2022-08-19T00:57:15;12.57;;;10.07;;
43086;SDS011;28708;52.224;6.924;2022-08-19T00:59:44;12.95;;;10.23;;
43086;SDS011;28708;52.224;6.924;2022-08-19T01:02:13;11.90;;;9.98;;
43086;SDS011;28708;52.224;6.924;2022-08-19T01:04:41;14.40;;;10.57;;
43086;SDS011;28708;52.224;6.924;2022-08-19T01:07:07;13.70;;;10.90;;
43086;SDS011;28708;52.224;6.924;2022-08-19T01:09:33;12.97;;;10.33;;
43086;SDS011;28708;52.224;6.924;2022-08-19T01:11:59;13.37;;;10.97;;
43086;SDS011;28708;52.224;6.924;2022-08-19T01:14:25;13.10;;;10.87;;
43086;SDS011;28708;52.224;6.924;2022-08-19T01:16:51;12.93;;;10.70;;
43086;SDS011;28708;52.224;6.924;2022-08-19T01:19:23;14.05;;;11.43;;
43086;SDS011;28708;52.224;6.924;2022-08-19T01:22:08;12.60;;;11.30;;
43086;SDS011;28708;52.224;6.924;2022-08-19T01:24:35;13.17;;;11.77;;
43086;SDS011;28708;52.224;6.924;2022-08-19T01:27:03;14.83;;;12.17;;
43086;SDS011;28708;52.224;6.924;2022-08-19T01:29:30;13.25;;;11.00;;
43086;SDS011;28708;52.224;6.924;2022-08-19T01:31:56;14.47;;;12.40;;
43086;SDS011;28708;52.224;6.924;2022-08-19T01:34:22;13.33;;;11.40;;
43086;SDS011;28708;52.224;6.924;2022-08-19T01:36:48;14.30;;;12.17;;
43086;SDS011;28708;52.224;6.924;2022-08-19T01:39:18;16.03;;;12.80;;
43086;SDS011;28708;52.224;6.924;2022-08-19T01:41:47;14.40;;;11.43;;
43086;SDS011;28708;52.224;6.924;2022-08-19T01:44:13;17.07;;;12.87;;
43086;SDS011;28708;52.224;6.924;2022-08-19T01:46:39;13.57;;;12.17;;
43086;SDS011;28708;52.224;6.924;2022-08-19T01:49:06;16.43;;;12.47;;
43086;SDS011;28708;52.224;6.924;2022-08-19T01:51:33;17.57;;;13.20;;
43086;SDS011;28708;52.224;6.924;2022-08-19T01:53:59;18.70;;;14.20;;
43086;SDS011;28708;52.224;6.924;2022-08-19T01:56:25;17.40;;;13.67;;
43086;SDS011;28708;52.224;6.924;2022-08-19T01:58:51;14.57;;;12.00;;
43086;SDS011;28708;52.224;6.924;2022-08-19T02:01:23;15.20;;;13.33;;
43086;SDS011;28708;52.224;6.924;2022-08-19T02:03:48;16.73;;;14.40;;
43086;SDS011;28708;52.224;6.924;2022-08-19T02:06:14;17.43;;;13.97;;
43086;SDS011;28708;52.224;6.924;2022-08-19T02:08:42;16.77;;;13.67;;
43086;SDS011;28708;52.224;6.924;2022-08-19T02:11:17;16.77;;;14.63;;
43086;SDS011;28708;52.224;6.924;2022-08-19T02:13:49;18.23;;;13.87;;
43086;SDS011;28708;52.224;6.924;2022-08-19T02:16:16;19.13;;;15.17;;
43086;SDS011;28708;52.224;6.924;2022-08-19T02:18:43;21.47;;;14.57;;
43086;SDS011;28708;52.224;6.924;2022-08-19T02:21:09;15.30;;;13.03;;
43086;SDS011;28708;52.224;6.924;2022-08-19T02:23:36;16.03;;;14.33;;
43086;SDS011;28708;52.224;6.924;2022-08-19T02:26:01;19.47;;;13.90;;
43086;SDS011;28708;52.224;6.924;2022-08-19T02:28:27;19.07;;;14.70;;
43086;SDS011;28708;52.224;6.924;2022-08-19T02:30:54;18.70;;;15.63;;
43086;SDS011;28708;52.224;6.924;2022-08-19T02:33:20;21.17;;;17.30;;
43086;SDS011;28708;52.224;6.924;2022-08-19T02:35:46;19.97;;;15.53;;
43086;SDS011;28708;52.224;6.924;2022-08-19T02:38:12;19.23;;;15.83;;
43086;SDS011;28708;52.224;6.924;2022-08-19T02:40:52;21.03;;;16.30;;
43086;SDS011;28708;52.224;6.924;2022-08-19T02:43:22;18.87;;;15.97;;
43086;SDS011;28708;52.224;6.924;2022-08-19T02:45:49;22.37;;;15.90;;
43086;SDS011;28708;52.224;6.924;2022-08-19T02:48:17;18.57;;;15.50;;
43086;SDS011;28708;52.224;6.924;2022-08-19T02:50:44;18.77;;;16.07;;
43086;SDS011;28708;52.224;6.924;2022-08-19T02:53:11;18.87;;;16.47;;
43086;SDS011;28708;52.224;6.924;2022-08-19T02:55:44;20.37;;;17.37;;
43086;SDS011;28708;52.224;6.924;2022-08-19T02:58:11;18.60;;;16.47;;
43086;SDS011;28708;52.224;6.924;2022-08-19T03:00:42;18.47;;;16.33;;
43086;SDS011;28708;52.224;6.924;2022-08-19T03:03:09;18.53;;;15.57;;
43086;SDS011;28708;52.224;6.924;2022-08-19T03:05:35;22.67;;;17.57;;
43086;SDS011;28708;52.224;6.924;2022-08-19T03:08:01;20.27;;;16.60;;
43086;SDS011;28708;52.224;6.924;2022-08-19T03:10:28;22.13;;;17.73;;
43086;SDS011;28708;52.224;6.924;2022-08-19T03:12:54;22.63;;;17.47;;
43086;SDS011;28708;52.224;6.924;2022-08-19T03:15:20;24.20;;;18.03;;
43086;SDS011;28708;52.224;6.924;2022-08-19T03:17:46;20.10;;;17.27;;
43086;SDS011;28708;52.224;6.924;2022-08-19T03:20:11;19.90;;;17.43;;
43086;SDS011;28708;52.224;6.924;2022-08-19T03:22:37;21.30;;;18.00;;
43086;SDS011;28708;52.224;6.924;2022-08-19T03:25:03;21.47;;;18.20;;
43086;SDS011;28708;52.224;6.924;2022-08-19T03:27:29;21.03;;;17.10;;
43086;SDS011;28708;52.224;6.924;2022-08-19T03:29:55;22.60;;;17.87;;
43086;SDS011;28708;52.224;6.924;2022-08-19T03:32:21;22.23;;;18.90;;
43086;SDS011;28708;52.224;6.924;2022-08-19T03:34:47;20.90;;;18.10;;
43086;SDS011;28708;52.224;6.924;2022-08-19T03:37:14;21.07;;;18.53;;
43086;SDS011;28708;52.224;6.924;2022-08-19T03:39:40;21.30;;;18.40;;
43086;SDS011;28708;52.224;6.924;2022-08-19T03:42:08;20.97;;;17.70;;
43086;SDS011;28708;52.224;6.924;2022-08-19T03:44:34;19.80;;;17.70;;
43086;SDS011;28708;52.224;6.924;2022-08-19T03:47:02;22.77;;;20.17;;
43086;SDS011;28708;52.224;6.924;2022-08-19T03:49:30;25.63;;;20.77;;
43086;SDS011;28708;52.224;6.924;2022-08-19T03:51:58;20.65;;;18.33;;
43086;SDS011;28708;52.224;6.924;2022-08-19T03:54:27;22.50;;;18.83;;
43086;SDS011;28708;52.224;6.924;2022-08-19T03:56:54;23.00;;;18.90;;
43086;SDS011;28708;52.224;6.924;2022-08-19T03:59:28;22.13;;;18.90;;
43086;SDS011;28708;52.224;6.924;2022-08-19T04:01:58;22.23;;;18.40;;
43086;SDS011;28708;52.224;6.924;2022-08-19T04:04:25;22.43;;;19.10;;
43086;SDS011;28708;52.224;6.924;2022-08-19T04:06:51;19.80;;;17.70;;
43086;SDS011;28708;52.224;6.924;2022-08-19T04:09:18;22.77;;;19.30;;
43086;SDS011;28708;52.224;6.924;2022-08-19T04:11:51;22.97;;;18.87;;
43086;SDS011;28708;52.224;6.924;2022-08-19T04:14:21;24.10;;;19.23;;
43086;SDS011;28708;52.224;6.924;2022-08-19T04:16:50;21.07;;;18.67;;
43086;SDS011;28708;52.224;6.924;2022-08-19T04:19:17;20.90;;;18.03;;
43086;SDS011;28708;52.224;6.924;2022-08-19T04:21:45;21.37;;;18.23;;
43086;SDS011;28708;52.224;6.924;2022-08-19T04:24:12;26.37;;;18.43;;
43086;SDS011;28708;52.224;6.924;2022-08-19T04:26:39;22.67;;;18.70;;
43086;SDS011;28708;52.224;6.924;2022-08-19T04:29:09;22.40;;;19.40;;
43086;SDS011;28708;52.224;6.924;2022-08-19T04:31:38;23.03;;;19.10;;
43086;SDS011;28708;52.224;6.924;2022-08-19T04:34:06;25.47;;;19.33;;
43086;SDS011;28708;52.224;6.924;2022-08-19T04:36:36;24.03;;;19.90;;
43086;SDS011;28708;52.224;6.924;2022-08-19T04:39:04;25.37;;;18.93;;
43086;SDS011;28708;52.224;6.924;2022-08-19T04:41:32;22.08;;;18.27;;
43086;SDS011;28708;52.224;6.924;2022-08-19T04:44:17;20.57;;;17.60;;
43086;SDS011;28708;52.224;6.924;2022-08-19T04:46:46;22.20;;;17.93;;
43086;SDS011;28708;52.224;6.924;2022-08-19T04:49:13;22.83;;;18.50;;
43086;SDS011;28708;52.224;6.924;2022-08-19T04:51:42;19.93;;;17.30;;
43086;SDS011;28708;52.224;6.924;2022-08-19T04:54:10;20.03;;;17.60;;
43086;SDS011;28708;52.224;6.924;2022-08-19T04:56:38;21.53;;;17.40;;
43086;SDS011;28708;52.224;6.924;2022-08-19T04:59:05;24.00;;;18.07;;
43086;SDS011;28708;52.224;6.924;2022-08-19T05:01:32;19.53;;;17.27;;
43086;SDS011;28708;52.224;6.924;2022-08-19T05:04:01;18.17;;;16.27;;
43086;SDS011;28708;52.224;6.924;2022-08-19T05:06:30;18.10;;;16.10;;
43086;SDS011;28708;52.224;6.924;2022-08-19T05:09:04;18.55;;;16.50;;
43086;SDS011;28708;52.224;6.924;2022-08-19T05:11:32;19.13;;;16.27;;
43086;SDS011;28708;52.224;6.924;2022-08-19T05:14:01;19.37;;;15.50;;
43086;SDS011;28708;52.224;6.924;2022-08-19T05:16:27;17.50;;;15.17;;
43086;SDS011;28708;52.224;6.924;2022-08-19T05:18:53;21.07;;;17.77;;
43086;SDS011;28708;52.224;6.924;2022-08-19T05:21:39;21.17;;;16.57;;
43086;SDS011;28708;52.224;6.924;2022-08-19T05:24:25;22.53;;;17.73;;
43086;SDS011;28708;52.224;6.924;2022-08-19T05:26:52;23.33;;;18.67;;
43086;SDS011;28708;52.224;6.924;2022-08-19T05:31:48;21.27;;;17.67;;
43086;SDS011;28708;52.224;6.924;2022-08-19T05:34:14;21.37;;;18.00;;
43086;SDS011;28708;52.224;6.924;2022-08-19T05:36:43;19.90;;;16.73;;
43086;SDS011;28708;52.224;6.924;2022-08-19T05:39:14;25.93;;;19.70;;
43086;SDS011;28708;52.224;6.924;2022-08-19T05:41:48;24.13;;;19.13;;
43086;SDS011;28708;52.224;6.924;2022-08-19T05:44:16;26.40;;;21.80;;
43086;SDS011;28708;52.224;6.924;2022-08-19T05:46:43;24.07;;;19.67;;
43086;SDS011;28708;52.224;6.924;2022-08-19T05:49:12;25.80;;;20.27;;
43086;SDS011;28708;52.224;6.924;2022-08-19T05:51:39;28.30;;;21.40;;
43086;SDS011;28708;52.224;6.924;2022-08-19T05:54:06;26.53;;;20.33;;
43086;SDS011;28708;52.224;6.924;2022-08-19T05:56:33;23.03;;;19.63;;
43086;SDS011;28708;52.224;6.924;2022-08-19T06:01:34;28.63;;;21.17;;
43086;SDS011;28708;52.224;6.924;2022-08-19T06:04:02;26.73;;;20.77;;
43086;SDS011;28708;52.224;6.924;2022-08-19T06:06:28;25.40;;;21.27;;
43086;SDS011;28708;52.224;6.924;2022-08-19T06:08:54;25.27;;;20.10;;
43086;SDS011;28708;52.224;6.924;2022-08-19T06:13:50;27.40;;;20.77;;
43086;SDS011;28708;52.224;6.924;2022-08-19T06:16:18;29.03;;;21.43;;
43086;SDS011;28708;52.224;6.924;2022-08-19T06:18:50;29.85;;;22.08;;
43086;SDS011;28708;52.224;6.924;2022-08-19T06:21:21;27.60;;;21.37;;
43086;SDS011;28708;52.224;6.924;2022-08-19T06:23:49;27.03;;;21.73;;
43086;SDS011;28708;52.224;6.924;2022-08-19T06:26:17;35.00;;;22.83;;
43086;SDS011;28708;52.224;6.924;2022-08-19T06:28:45;28.73;;;21.23;;
43086;SDS011;28708;52.224;6.924;2022-08-19T06:31:13;27.37;;;22.23;;
43086;SDS011;28708;52.224;6.924;2022-08-19T06:33:41;27.47;;;21.87;;
43086;SDS011;28708;52.224;6.924;2022-08-19T06:36:15;29.30;;;22.37;;
43086;SDS011;28708;52.224;6.924;2022-08-19T06:38:59;27.80;;;22.20;;
43086;SDS011;28708;52.224;6.924;2022-08-19T06:41:27;28.83;;;23.27;;
43086;SDS011;28708;52.224;6.924;2022-08-19T06:43:54;30.90;;;21.90;;
43086;SDS011;28708;52.224;6.924;2022-08-19T06:46:21;27.30;;;21.40;;
43086;SDS011;28708;52.224;6.924;2022-08-19T06:48:47;26.10;;;20.70;;
43086;SDS011;28708;52.224;6.924;2022-08-19T06:51:17;27.47;;;21.50;;
43086;SDS011;28708;52.224;6.924;2022-08-19T06:53:46;28.37;;;21.90;;
43086;SDS011;28708;52.224;6.924;2022-08-19T06:56:15;27.07;;;20.63;;
43086;SDS011;28708;52.224;6.924;2022-08-19T07:01:08;28.53;;;21.27;;
43086;SDS011;28708;52.224;6.924;2022-08-19T07:03:35;25.83;;;20.23;;
43086;SDS011;28708;52.224;6.924;2022-08-19T07:06:03;24.10;;;19.63;;
43086;SDS011;28708;52.224;6.924;2022-08-19T07:08:30;22.73;;;19.37;;
43086;SDS011;28708;52.224;6.924;2022-08-19T07:10:55;26.77;;;20.23;;
43086;SDS011;28708;52.224;6.924;2022-08-19T07:13:21;21.13;;;18.83;;
43086;SDS011;28708;52.224;6.924;2022-08-19T07:15:48;26.40;;;19.00;;
43086;SDS011;28708;52.224;6.924;2022-08-19T07:18:16;21.93;;;17.73;;
43086;SDS011;28708;52.224;6.924;2022-08-19T07:20:43;23.03;;;17.50;;
43086;SDS011;28708;52.224;6.924;2022-08-19T07:23:09;25.13;;;18.87;;
43086;SDS011;28708;52.224;6.924;2022-08-19T07:25:36;22.47;;;17.43;;
43086;SDS011;28708;52.224;6.924;2022-08-19T07:28:03;19.57;;;17.33;;
43086;SDS011;28708;52.224;6.924;2022-08-19T07:30:29;20.03;;;16.37;;
43086;SDS011;28708;52.224;6.924;2022-08-19T07:32:56;19.50;;;15.57;;
43086;SDS011;28708;52.224;6.924;2022-08-19T07:35:22;18.40;;;16.27;;
43086;SDS011;28708;52.224;6.924;2022-08-19T07:37:48;19.03;;;15.03;;
43086;SDS011;28708;52.224;6.924;2022-08-19T07:40:14;19.07;;;15.70;;
43086;SDS011;28708;52.224;6.924;2022-08-19T07:42:40;22.93;;;18.87;;
43086;SDS011;28708;52.224;6.924;2022-08-19T07:45:07;19.47;;;15.47;;
43086;SDS011;28708;52.224;6.924;2022-08-19T07:47:35;17.90;;;13.97;;
43086;SDS011;28708;52.224;6.924;2022-08-19T07:50:01;14.77;;;12.40;;
43086;SDS011;28708;52.224;6.924;2022-08-19T07:52:29;16.97;;;14.40;;
43086;SDS011;28708;52.224;6.924;2022-08-19T07:54:55;18.55;;;12.45;;
43086;SDS011;28708;52.224;6.924;2022-08-19T07:57:21;17.30;;;12.67;;
43086;SDS011;28708;52.224;6.924;2022-08-19T07:59:46;16.60;;;13.52;;
43086;SDS011;28708;52.224;6.924;2022-08-19T08:02:12;15.40;;;12.25;;
43086;SDS011;28708;52.224;6.924;2022-08-19T08:04:38;15.25;;;12.38;;
43086;SDS011;28708;52.224;6.924;2022-08-19T08:07:23;16.63;;;13.32;;
43086;SDS011;28708;52.224;6.924;2022-08-19T08:10:08;15.70;;;13.10;;
43086;SDS011;28708;52.224;6.924;2022-08-19T08:12:36;15.10;;;12.52;;
43086;SDS011;28708;52.224;6.924;2022-08-19T08:15:08;20.52;;;13.40;;
43086;SDS011;28708;52.224;6.924;2022-08-19T08:17:43;16.58;;;13.02;;
43086;SDS011;28708;52.224;6.924;2022-08-19T08:20:10;15.95;;;12.70;;
43086;SDS011;28708;52.224;6.924;2022-08-19T08:22:37;14.57;;;11.52;;
43086;SDS011;28708;52.224;6.924;2022-08-19T08:25:27;15.60;;;12.90;;
43086;SDS011;28708;52.224;6.924;2022-08-19T08:27:53;14.20;;;11.45;;
43086;SDS011;28708;52.224;6.924;2022-08-19T08:30:22;19.58;;;15.48;;
43086;SDS011;28708;52.224;6.924;2022-08-19T08:32:49;17.67;;;14.70;;
43086;SDS011;28708;52.224;6.924;2022-08-19T08:35:18;18.35;;;14.30;;
43086;SDS011;28708;52.224;6.924;2022-08-19T08:37:46;18.52;;;14.38;;
43086;SDS011;28708;52.224;6.924;2022-08-19T08:45:56;15.60;;;13.60;;
43086;SDS011;28708;52.224;6.924;2022-08-19T08:48:27;15.48;;;13.32;;
43086;SDS011;28708;52.224;6.924;2022-08-19T08:51:02;15.40;;;12.73;;
43086;SDS011;28708;52.224;6.924;2022-08-19T08:53:32;16.05;;;13.38;;
43086;SDS011;28708;52.224;6.924;2022-08-19T08:56:00;14.70;;;13.07;;
43086;SDS011;28708;52.224;6.924;2022-08-19T08:58:31;16.90;;;13.15;;
43086;SDS011;28708;52.224;6.924;2022-08-19T09:01:08;14.52;;;12.68;;
43086;SDS011;28708;52.224;6.924;2022-08-19T09:03:36;14.80;;;12.50;;
43086;SDS011;28708;52.224;6.924;2022-08-19T09:11:43;17.77;;;12.38;;
43086;SDS011;28708;52.224;6.924;2022-08-19T09:14:32;9.45;;;7.80;;
43086;SDS011;28708;52.224;6.924;2022-08-19T09:17:22;10.18;;;8.90;;
43086;SDS011;28708;52.224;6.924;2022-08-19T09:22:21;10.63;;;7.90;;
43086;SDS011;28708;52.224;6.924;2022-08-19T09:24:49;12.20;;;10.57;;
43086;SDS011;28708;52.224;6.924;2022-08-19T09:27:17;11.02;;;9.90;;
43086;SDS011;28708;52.224;6.924;2022-08-19T09:29:45;9.75;;;7.85;;
43086;SDS011;28708;52.224;6.924;2022-08-19T09:32:12;8.30;;;6.90;;
43086;SDS011;28708;52.224;6.924;2022-08-19T09:34:38;11.95;;;9.80;;
43086;SDS011;28708;52.224;6.924;2022-08-19T09:37:04;8.95;;;7.13;;
43086;SDS011;28708;52.224;6.924;2022-08-19T09:39:30;8.88;;;6.63;;
43086;SDS011;28708;52.224;6.924;2022-08-19T09:41:56;9.45;;;6.78;;
43086;SDS011;28708;52.224;6.924;2022-08-19T09:44:22;8.80;;;7.35;;
43086;SDS011;28708;52.224;6.924;2022-08-19T09:46:48;7.35;;;5.53;;
43086;SDS011;28708;52.224;6.924;2022-08-19T09:49:15;8.95;;;6.40;;
43086;SDS011;28708;52.224;6.924;2022-08-19T09:51:42;6.00;;;5.20;;
43086;SDS011;28708;52.224;6.924;2022-08-19T09:54:08;7.40;;;4.97;;
43086;SDS011;28708;52.224;6.924;2022-08-19T09:56:34;10.63;;;7.50;;
43086;SDS011;28708;52.224;6.924;2022-08-19T09:59:00;10.63;;;8.98;;
43086;SDS011;28708;52.224;6.924;2022-08-19T10:01:29;9.13;;;7.03;;
43086;SDS011;28708;52.224;6.924;2022-08-19T10:03:57;9.88;;;8.88;;
43086;SDS011;28708;52.224;6.924;2022-08-19T10:06:25;10.27;;;8.60;;
43086;SDS011;28708;52.224;6.924;2022-08-19T10:08:55;8.85;;;7.80;;
43086;SDS011;28708;52.224;6.924;2022-08-19T10:11:21;10.63;;;7.97;;
43086;SDS011;28708;52.224;6.924;2022-08-19T10:13:47;11.43;;;6.68;;
43086;SDS011;28708;52.224;6.924;2022-08-19T10:16:15;10.10;;;7.13;;
43086;SDS011;28708;52.224;6.924;2022-08-19T10:18:43;11.15;;;10.05;;
43086;SDS011;28708;52.224;6.924;2022-08-19T10:21:13;13.98;;;9.88;;
43086;SDS011;28708;52.224;6.924;2022-08-19T10:23:45;9.18;;;8.00;;
43086;SDS011;28708;52.224;6.924;2022-08-19T10:26:15;8.40;;;7.35;;
43086;SDS011;28708;52.224;6.924;2022-08-19T10:28:46;10.40;;;8.70;;
43086;SDS011;28708;52.224;6.924;2022-08-19T10:31:14;8.80;;;6.82;;
43086;SDS011;28708;52.224;6.924;2022-08-19T10:33:45;10.93;;;8.50;;
43086;SDS011;28708;52.224;6.924;2022-08-19T10:36:16;11.20;;;8.18;;
43086;SDS011;28708;52.224;6.924;2022-08-19T10:38:45;9.85;;;8.70;;
43086;SDS011;28708;52.224;6.924;2022-08-19T10:41:14;9.27;;;7.82;;
43086;SDS011;28708;52.224;6.924;2022-08-19T10:43:42;12.38;;;9.60;;
43086;SDS011;28708;52.224;6.924;2022-08-19T10:46:11;9.23;;;7.70;;
43086;SDS011;28708;52.224;6.924;2022-08-19T10:48:40;9.65;;;7.40;;
43086;SDS011;28708;52.224;6.924;2022-08-19T10:51:08;10.55;;;8.48;;
43086;SDS011;28708;52.224;6.924;2022-08-19T10:53:54;8.57;;;6.38;;
43086;SDS011;28708;52.224;6.924;2022-08-19T10:56:22;10.18;;;8.18;;
43086;SDS011;28708;52.224;6.924;2022-08-19T10:59:06;7.15;;;5.95;;
43086;SDS011;28708;52.224;6.924;2022-08-19T11:01:33;12.85;;;10.40;;
43086;SDS011;28708;52.224;6.924;2022-08-19T11:04:00;12.98;;;8.98;;
43086;SDS011;28708;52.224;6.924;2022-08-19T11:06:27;12.25;;;9.40;;
43086;SDS011;28708;52.224;6.924;2022-08-19T11:08:54;11.32;;;10.13;;
43086;SDS011;28708;52.224;6.924;2022-08-19T11:11:20;15.65;;;12.07;;
43086;SDS011;28708;52.224;6.924;2022-08-19T11:13:46;14.00;;;11.52;;
43086;SDS011;28708;52.224;6.924;2022-08-19T11:16:14;12.48;;;10.23;;
43086;SDS011;28708;52.224;6.924;2022-08-19T11:18:47;14.48;;;10.13;;
43086;SDS011;28708;52.224;6.924;2022-08-19T11:21:16;14.75;;;10.00;;
43086;SDS011;28708;52.224;6.924;2022-08-19T11:23:44;14.00;;;9.73;;
43086;SDS011;28708;52.224;6.924;2022-08-19T11:26:12;9.48;;;8.48;;
43086;SDS011;28708;52.224;6.924;2022-08-19T11:28:38;15.00;;;11.15;;
43086;SDS011;28708;52.224;6.924;2022-08-19T11:31:09;12.20;;;10.82;;
43086;SDS011;28708;52.224;6.924;2022-08-19T11:33:36;12.07;;;10.77;;
43086;SDS011;28708;52.224;6.924;2022-08-19T11:36:02;11.25;;;10.05;;
43086;SDS011;28708;52.224;6.924;2022-08-19T11:38:28;9.65;;;7.88;;
43086;SDS011;28708;52.224;6.924;2022-08-19T11:40:59;11.57;;;9.50;;
43086;SDS011;28708;52.224;6.924;2022-08-19T11:43:27;11.65;;;8.88;;
43086;SDS011;28708;52.224;6.924;2022-08-19T11:45:54;11.02;;;9.90;;
43086;SDS011;28708;52.224;6.924;2022-08-19T11:48:20;12.35;;;10.05;;
43086;SDS011;28708;52.224;6.924;2022-08-19T11:50:51;13.90;;;11.38;;
43086;SDS011;28708;52.224;6.924;2022-08-19T11:53:20;14.77;;;11.52;;
43086;SDS011;28708;52.224;6.924;2022-08-19T11:55:47;12.05;;;10.40;;
43086;SDS011;28708;52.224;6.924;2022-08-19T11:58:13;13.07;;;9.98;;
43086;SDS011;28708;52.224;6.924;2022-08-19T12:00:40;10.85;;;8.00;;
43086;SDS011;28708;52.224;6.924;2022-08-19T12:03:07;13.43;;;8.35;;
43086;SDS011;28708;52.224;6.924;2022-08-19T12:05:33;11.35;;;7.43;;
43086;SDS011;28708;52.224;6.924;2022-08-19T12:08:02;10.77;;;9.00;;
43086;SDS011;28708;52.224;6.924;2022-08-19T12:10:28;12.63;;;9.77;;
43086;SDS011;28708;52.224;6.924;2022-08-19T12:12:53;11.25;;;8.25;;
43086;SDS011;28708;52.224;6.924;2022-08-19T12:15:19;9.55;;;7.90;;
43086;SDS011;28708;52.224;6.924;2022-08-19T12:17:45;10.45;;;9.02;;
43086;SDS011;28708;52.224;6.924;2022-08-19T12:20:11;12.90;;;9.50;;
43086;SDS011;28708;52.224;6.924;2022-08-19T12:22:42;9.43;;;7.68;;
43086;SDS011;28708;52.224;6.924;2022-08-19T12:25:09;11.80;;;7.43;;
43086;SDS011;28708;52.224;6.924;2022-08-19T12:27:36;13.88;;;9.85;;
43086;SDS011;28708;52.224;6.924;2022-08-19T12:30:03;11.15;;;8.63;;
43086;SDS011;28708;52.224;6.924;2022-08-19T12:32:31;16.73;;;9.13;;
43086;SDS011;28708;52.224;6.924;2022-08-19T12:34:56;9.63;;;8.07;;
43086;SDS011;28708;52.224;6.924;2022-08-19T12:37:22;9.32;;;6.70;;
43086;SDS011;28708;52.224;6.924;2022-08-19T12:39:48;10.82;;;7.90;;
43086;SDS011;28708;52.224;6.924;2022-08-19T12:42:14;10.15;;;7.20;;
43086;SDS011;28708;52.224;6.924;2022-08-19T12:44:41;10.45;;;7.35;;
43086;SDS011;28708;52.224;6.924;2022-08-19T12:47:09;8.60;;;6.32;;
43086;SDS011;28708;52.224;6.924;2022-08-19T12:49:37;9.35;;;6.03;;
43086;SDS011;28708;52.224;6.924;2022-08-19T12:52:04;8.48;;;6.03;;
43086;SDS011;28708;52.224;6.924;2022-08-19T12:54:33;11.38;;;7.28;;
43086;SDS011;28708;52.224;6.924;2022-08-19T12:57:00;10.57;;;6.97;;
43086;SDS011;28708;52.224;6.924;2022-08-19T12:59:26;10.23;;;5.93;;
43086;SDS011;28708;52.224;6.924;2022-08-19T13:01:52;7.75;;;5.13;;
43086;SDS011;28708;52.224;6.924;2022-08-19T13:04:18;5.43;;;4.25;;
43086;SDS011;28708;52.224;6.924;2022-08-19T13:06:44;5.43;;;4.13;;
43086;SDS011;28708;52.224;6.924;2022-08-19T13:09:10;5.78;;;4.35;;
43086;SDS011;28708;52.224;6.924;2022-08-19T13:11:36;5.47;;;3.97;;
43086;SDS011;28708;52.224;6.924;2022-08-19T13:14:02;7.32;;;5.18;;
43086;SDS011;28708;52.224;6.924;2022-08-19T13:16:30;7.72;;;4.65;;
43086;SDS011;28708;52.224;6.924;2022-08-19T13:18:56;10.00;;;4.63;;
43086;SDS011;28708;52.224;6.924;2022-08-19T13:21:24;4.75;;;3.28;;
43086;SDS011;28708;52.224;6.924;2022-08-19T13:23:51;6.15;;;3.80;;
43086;SDS011;28708;52.224;6.924;2022-08-19T13:26:17;7.95;;;4.93;;
43086;SDS011;28708;52.224;6.924;2022-08-19T13:28:43;5.70;;;4.00;;
43086;SDS011;28708;52.224;6.924;2022-08-19T13:31:30;5.93;;;4.32;;
43086;SDS011;28708;52.224;6.924;2022-08-19T13:34:17;5.13;;;3.40;;
43086;SDS011;28708;52.224;6.924;2022-08-19T13:36:46;6.32;;;3.67;;
43086;SDS011;28708;52.224;6.924;2022-08-19T13:39:12;4.85;;;3.70;;
43086;SDS011;28708;52.224;6.924;2022-08-19T13:41:43;6.65;;;4.00;;
43086;SDS011;28708;52.224;6.924;2022-08-19T13:44:16;6.53;;;4.13;;
43086;SDS011;28708;52.224;6.924;2022-08-19T13:46:47;8.82;;;4.95;;
43086;SDS011;28708;52.224;6.924;2022-08-19T13:49:16;7.00;;;4.60;;
43086;SDS011;28708;52.224;6.924;2022-08-19T13:51:42;7.07;;;4.22;;
43086;SDS011;28708;52.224;6.924;2022-08-19T13:54:09;8.52;;;4.47;;
43086;SDS011;28708;52.224;6.924;2022-08-19T13:56:40;14.65;;;10.05;;
43086;SDS011;28708;52.224;6.924;2022-08-19T13:59:07;9.70;;;6.57;;
43086;SDS011;28708;52.224;6.924;2022-08-19T14:01:32;11.35;;;7.03;;
43086;SDS011;28708;52.224;6.924;2022-08-19T14:03:59;11.27;;;8.02;;
43086;SDS011;28708;52.224;6.924;2022-08-19T14:06:25;11.43;;;8.00;;
43086;SDS011;28708;52.224;6.924;2022-08-19T14:08:51;10.73;;;7.68;;
43086;SDS011;28708;52.224;6.924;2022-08-19T14:11:17;9.95;;;6.57;;
43086;SDS011;28708;52.224;6.924;2022-08-19T14:13:43;10.63;;;6.05;;
43086;SDS011;28708;52.224;6.924;2022-08-19T14:16:10;11.85;;;8.60;;
43086;SDS011;28708;52.224;6.924;2022-08-19T14:18:37;10.90;;;7.78;;
43086;SDS011;28708;52.224;6.924;2022-08-19T14:21:04;13.45;;;7.47;;
43086;SDS011;28708;52.224;6.924;2022-08-19T14:23:31;14.70;;;7.50;;
43086;SDS011;28708;52.224;6.924;2022-08-19T14:26:10;9.43;;;6.75;;
43086;SDS011;28708;52.224;6.924;2022-08-19T14:28:39;9.63;;;7.10;;
43086;SDS011;28708;52.224;6.924;2022-08-19T14:31:09;9.20;;;6.10;;
43086;SDS011;28708;52.224;6.924;2022-08-19T14:33:36;10.55;;;8.02;;
43086;SDS011;28708;52.224;6.924;2022-08-19T14:36:02;7.65;;;6.13;;
43086;SDS011;28708;52.224;6.924;2022-08-19T14:38:28;9.40;;;7.32;;
43086;SDS011;28708;52.224;6.924;2022-08-19T14:41:18;10.20;;;8.30;;
43086;SDS011;28708;52.224;6.924;2022-08-19T14:43:45;11.18;;;7.88;;
43086;SDS011;28708;52.224;6.924;2022-08-19T14:46:14;9.27;;;6.88;;
43086;SDS011;28708;52.224;6.924;2022-08-19T14:48:41;9.70;;;7.43;;
43086;SDS011;28708;52.224;6.924;2022-08-19T14:51:08;9.70;;;6.95;;
43086;SDS011;28708;52.224;6.924;2022-08-19T14:53:34;12.05;;;7.78;;
43086;SDS011;28708;52.224;6.924;2022-08-19T14:56:01;10.55;;;6.55;;
43086;SDS011;28708;52.224;6.924;2022-08-19T14:58:31;9.05;;;6.22;;